Terminal Aerodrome Forecast
Issued by NWS Charleston, WV

Current Version | Previous Version | Graphics & Text | Print | Product List | Glossary On
Versions: 1 2 3 4 5 6 7 8 9 10 11 12 13 14 15 16 17 18 19 20 21 22
746
FTUS41 KRLX 251747
TAFCRW
TAF
KCRW 251747Z 2518/2618 04002KT P6SM SKC
     FM260000 00000KT P6SM SCT250
     FM260800 00000KT 6SM BR SCT200
     FM261000 00000KT 3SM BR SCT001
     FM261200 16003KT P6SM SCT080
     FM261400 20007KT P6SM BKN060=

USA.gov is the U.S. government's official web portal to all federal, state and local government web resources and services.